Time;durP1;ratioP1;P1;durP2;ratioP2;P2;SDS_P1;SDS_P2;PMS_P1;PMS_P2;Temp;Humidity;BMP_temperature;BMP_pressure;BME280_temperature;BME280_humidity;BME280_pressure;Samples;Min_cycle;Max_cycle;Signal;HPM_P1;HPM_P2
2022/05/16 00:00:15;;;;;;;12.30;11.10;;;;;;;23.02;60.14;99966.94;5032732;28;20053;-37
2022/05/16 00:02:41;;;;;;;12.68;11.38;;;;;;;23.07;59.75;99959.88;5032644;28;20508;-37
2022/05/16 00:05:07;;;;;;;12.10;10.65;;;;;;;23.15;59.49;99964.72;5033040;28;20022;-37
2022/05/16 00:07:33;;;;;;;12.57;11.38;;;;;;;23.09;59.66;99963.13;5032801;28;20052;-37
2022/05/16 00:09:59;;;;;;;11.60;10.40;;;;;;;23.12;58.79;99957.94;5032357;28;20037;-37
2022/05/16 00:12:24;;;;;;;12.73;11.43;;;;;;;23.04;58.86;99966.69;5032960;28;20532;-37
2022/05/16 00:14:50;;;;;;;14.32;12.82;;;;;;;22.75;59.39;99972.78;5032509;28;20419;-37
2022/05/16 00:17:16;;;;;;;14.45;13.00;;;;;;;22.64;59.50;99973.94;5032732;28;20060;-38
2022/05/16 00:19:42;;;;;;;15.15;13.18;;;;;;;22.58;58.69;99975.84;5032369;28;20030;-38
2022/05/16 00:22:09;;;;;;;15.95;13.27;;;;;;;22.22;59.72;99988.69;5032779;28;20037;-38
2022/05/16 00:24:35;;;;;;;18.35;13.55;;;;;;;22.16;59.50;99981.63;5032569;28;20116;-38
2022/05/16 00:27:00;;;;;;;15.95;14.25;;;;;;;21.91;59.97;99977.06;5032755;28;20148;-38
2022/05/16 00:29:27;;;;;;;15.27;13.68;;;;;;;21.40;61.51;99976.00;5031823;28;20076;-38
2022/05/16 00:31:54;;;;;;;15.82;13.45;;;;;;;21.62;60.76;99975.75;5032205;28;20064;-38
2022/05/16 00:34:20;;;;;;;15.57;13.95;;;;;;;21.37;61.75;99978.41;5032396;28;20033;-38
2022/05/16 00:36:48;;;;;;;15.88;14.38;;;;;;;21.26;61.93;99977.59;5032329;28;20515;-38
2022/05/16 00:39:15;;;;;;;16.15;14.50;;;;;;;20.99;62.60;99978.63;5032120;28;20089;-38
2022/05/16 00:41:42;;;;;;;15.80;14.25;;;;;;;21.04;62.66;99975.13;5032137;28;20057;-38
2022/05/16 00:44:08;;;;;;;16.00;14.50;;;;;;;20.80;63.42;99974.78;5031739;28;20025;-38
2022/05/16 00:46:33;;;;;;;17.05;15.35;;;;;;;20.94;63.23;99967.78;5032076;28;20417;-38
2022/05/16 00:49:02;;;;;;;17.80;15.88;;;;;;;20.68;63.27;99943.38;5032081;28;20029;-38
2022/05/16 00:51:32;;;;;;;18.38;16.23;;;;;;;20.83;63.70;99966.94;5041528;28;20021;-38
2022/05/16 00:54:05;;;;;;;16.95;15.25;;;;;;;21.02;62.99;99964.56;5051841;28;20075;-38
2022/05/16 00:56:32;;;;;;;19.10;16.38;;;;;;;21.04;63.30;99969.72;5051800;28;20381;-38
2022/05/16 00:58:58;;;;;;;20.33;16.83;;;;;;;21.16;62.45;99972.97;5051798;28;20056;-38
2022/05/16 01:06:56;;;;;;;19.13;17.08;;;;;;;20.67;64.72;99971.47;5031196;28;20555;-38
2022/05/16 01:09:22;;;;;;;20.90;18.75;;;;;;;20.85;65.06;99972.09;5031515;28;20022;-38
2022/05/16 01:11:47;;;;;;;19.98;17.48;;;;;;;20.95;64.10;99972.13;5030798;28;20454;-38
2022/05/16 01:15:05;;;;;;;20.52;18.17;;;;;;;20.98;64.25;99978.88;5029972;28;20051;-38
2022/05/16 01:17:31;;;;;;;18.95;17.08;;;;;;;20.89;64.44;99976.69;5018475;28;20496;-38
2022/05/16 01:19:57;;;;;;;20.75;17.88;;;;;;;20.79;64.73;99975.84;5031214;28;20030;-36
2022/05/16 01:22:23;;;;;;;26.67;18.65;;;;;;;20.55;65.82;99973.56;5030892;28;20032;-38
2022/05/16 01:24:51;;;;;;;24.30;17.75;;;;;;;20.73;65.08;99968.81;5031013;28;20025;-38
2022/05/16 01:27:16;;;;;;;21.15;17.52;;;;;;;20.81;64.89;99968.28;5031140;28;20104;-37
2022/05/16 01:29:42;;;;;;;20.23;18.23;;;;;;;20.56;65.61;99972.50;5030325;28;20193;-38
2022/05/16 01:32:10;;;;;;;19.33;17.38;;;;;;;20.75;64.61;99970.16;5030608;28;20558;-37
2022/05/16 01:34:36;;;;;;;18.95;16.95;;;;;;;20.80;64.81;99966.66;5030400;28;20473;-37
2022/05/16 01:37:02;;;;;;;20.33;18.15;;;;;;;20.79;64.94;99970.44;5031196;28;20029;-37
2022/05/16 01:39:28;;;;;;;21.05;18.10;;;;;;;20.92;64.50;99974.53;5031112;28;20033;-37
2022/05/16 01:41:53;;;;;;;20.35;18.15;;;;;;;20.96;64.16;99981.88;5030538;28;20025;-37
2022/05/16 01:44:18;;;;;;;18.63;16.63;;;;;;;21.02;64.05;99983.50;5030351;28;20028;-37
2022/05/16 01:46:44;;;;;;;19.40;17.50;;;;;;;21.03;64.03;99981.59;5029745;28;20082;-37
2022/05/16 01:49:10;;;;;;;25.77;18.40;;;;;;;20.81;64.46;99969.09;5030425;28;20072;-37
2022/05/16 01:51:36;;;;;;;19.73;17.70;;;;;;;20.87;64.44;99976.16;5031022;28;20353;-38
2022/05/16 01:54:03;;;;;;;20.58;18.38;;;;;;;20.85;64.68;99981.03;5030418;28;20033;-38
2022/05/16 01:56:30;;;;;;;19.60;17.27;;;;;;;20.93;64.26;99974.28;5030768;28;20104;-37
2022/05/16 01:58:57;;;;;;;21.65;17.17;;;;;;;21.00;64.34;99974.00;5030658;28;20104;-37
2022/05/16 02:01:22;;;;;;;19.10;17.20;;;;;;;20.97;63.80;99980.78;5030871;28;20033;-38
2022/05/16 02:03:49;;;;;;;19.08;17.10;;;;;;;20.93;63.99;99971.56;5043458;28;20028;-38
2022/05/16 02:06:14;;;;;;;19.52;16.23;;;;;;;20.96;64.36;99976.47;5050802;28;20033;-38
2022/05/16 02:08:40;;;;;;;18.77;16.83;;;;;;;20.92;63.71;99971.84;5050005;28;20620;-38
2022/05/16 02:11:07;;;;;;;19.52;17.55;;;;;;;20.78;64.02;99976.94;5049431;28;20481;-37
2022/05/16 02:13:34;;;;;;;18.23;16.20;;;;;;;20.17;65.06;99967.44;5050170;28;20048;-37
2022/05/16 02:16:00;;;;;;;17.35;15.57;;;;;;;20.27;64.51;99975.59;5050125;28;20024;-37
2022/05/16 02:18:26;;;;;;;16.65;14.85;;;;;;;20.37;64.35;99980.25;5050323;28;20094;-38
2022/05/16 02:20:52;;;;;;;17.00;15.25;;;;;;;20.45;63.87;99979.75;5050510;28;20060;-38
2022/05/16 02:26:02;;;;;;;16.77;15.10;;;;;;;20.61;63.63;99977.13;5050369;28;20466;-38
2022/05/16 02:28:28;;;;;;;16.88;15.02;;;;;;;20.71;62.93;99979.88;5049591;28;20472;-38
2022/05/16 02:30:55;;;;;;;17.13;15.32;;;;;;;20.79;62.63;99973.97;5049883;28;20025;-36
2022/05/16 02:33:21;;;;;;;17.17;15.38;;;;;;;20.56;62.84;99968.97;5049903;28;20023;-37
2022/05/16 02:35:47;;;;;;;18.52;15.57;;;;;;;20.44;63.29;99980.81;5049780;28;20025;-37
2022/05/16 02:38:14;;;;;;;18.60;14.93;;;;;;;20.40;63.26;99977.00;5049469;28;20021;-38
2022/05/16 02:40:40;;;;;;;15.93;14.27;;;;;;;20.45;62.74;99976.25;5050047;28;20044;-38
2022/05/16 02:43:06;;;;;;;17.70;14.32;;;;;;;20.37;62.43;99974.84;5049952;28;20017;-38
2022/05/16 02:45:33;;;;;;;16.92;14.05;;;;;;;20.35;62.74;99978.88;5049916;28;20436;-38
2022/05/16 02:47:58;;;;;;;15.18;13.57;;;;;;;20.27;62.51;99977.47;5035118;28;20030;-38
2022/05/16 02:50:25;;;;;;;18.73;13.13;;;;;;;20.13;62.94;99973.63;5030042;28;20021;-38
2022/05/16 02:52:52;;;;;;;14.80;12.88;;;;;;;20.29;62.53;99972.63;5046331;28;20404;-37
2022/05/16 02:55:18;;;;;;;16.17;12.52;;;;;;;20.27;62.11;99972.09;5049633;28;20032;-37
2022/05/16 02:57:43;;;;;;;16.00;12.60;;;;;;;20.38;61.43;99975.66;5048087;28;20441;-37
2022/05/16 03:00:12;;;;;;;13.90;11.68;;;;;;;20.26;61.32;99973.16;5049530;28;20112;-38
2022/05/16 03:02:39;;;;;;;12.98;11.50;;;;;;;20.26;60.83;99978.56;5048295;28;20021;-37
2022/05/16 03:05:06;;;;;;;13.10;11.40;;;;;;;20.24;60.92;99980.72;5039358;28;20045;-37
2022/05/16 03:07:32;;;;;;;13.52;10.43;;;;;;;20.23;61.08;99982.59;5037792;28;20535;-37
2022/05/16 03:09:57;;;;;;;14.27;10.18;;;;;;;20.40;60.10;99981.63;5049249;28;20029;-37
2022/05/16 03:12:22;;;;;;;16.63;10.90;;;;;;;20.47;59.60;99980.28;5049292;28;20048;-37
2022/05/16 03:14:48;;;;;;;12.93;9.98;;;;;;;20.47;59.40;99984.91;5049349;28;20473;-37
2022/05/16 03:17:13;;;;;;;12.63;10.20;;;;;;;20.26;59.74;99982.09;5049274;28;20025;-38
2022/05/16 03:19:39;;;;;;;13.82;10.30;;;;;;;20.40;59.58;99985.13;5048818;28;20059;-36
2022/05/16 03:22:06;;;;;;;17.13;14.05;;;;;;;20.39;59.46;99986.22;5049252;28;20079;-36
2022/05/16 03:24:32;;;;;;;14.40;12.55;;;;;;;20.38;58.92;99981.06;5049149;28;20060;-37
2022/05/16 03:27:01;;;;;;;20.65;17.92;;;;;;;20.44;59.24;99991.63;5049415;28;20052;-37
2022/05/16 03:29:26;;;;;;;15.48;13.55;;;;;;;20.49;59.00;99998.97;5049142;28;20124;-37
2022/05/16 03:31:53;;;;;;;9.02;8.13;;;;;;;20.45;60.90;100001.38;5048792;28;20116;-37
2022/05/16 03:34:19;;;;;;;13.20;9.93;;;;;;;20.31;59.08;100002.91;5049284;28;20025;-37
2022/05/16 03:36:45;;;;;;;12.07;9.63;;;;;;;20.44;58.43;100001.63;5049166;28;20477;-38
2022/05/16 03:41:54;;;;;;;14.75;9.70;;;;;;;20.43;58.26;100003.53;5048438;28;20028;-37
2022/05/16 03:44:20;;;;;;;11.18;9.55;;;;;;;20.54;58.21;100004.38;5049138;28;20448;-37
2022/05/16 03:46:47;;;;;;;13.50;9.25;;;;;;;20.66;58.11;100013.13;5049650;28;20029;-36
2022/05/16 03:49:12;;;;;;;11.55;9.00;;;;;;;21.00;56.98;100012.72;5049188;28;20025;-37
2022/05/16 03:51:39;;;;;;;11.18;8.88;;;;;;;21.31;56.48;100017.38;5047805;28;20033;-36
2022/05/16 03:54:05;;;;;;;10.68;8.40;;;;;;;21.51;55.35;100022.84;5046900;28;20025;-37
2022/05/16 03:56:31;;;;;;;11.75;8.73;;;;;;;21.51;54.22;100014.72;5047895;28;20021;-36
2022/05/16 03:58:57;;;;;;;11.48;8.65;;;;;;;21.65;53.56;100026.66;5047676;28;20055;-37
2022/05/16 04:01:24;;;;;;;10.25;7.60;;;;;;;21.79;54.38;100024.22;5048298;28;20106;-37
2022/05/16 04:03:50;;;;;;;11.27;8.00;;;;;;;22.11;53.44;100033.94;5034845;28;20037;-37
2022/05/16 04:06:16;;;;;;;9.18;7.80;;;;;;;22.44;52.98;100037.16;5032325;28;20029;-37
2022/05/16 04:08:42;;;;;;;9.60;7.60;;;;;;;22.93;50.90;100031.03;5032860;28;20055;-37
2022/05/16 04:11:09;;;;;;;11.98;8.27;;;;;;;23.26;50.39;100036.03;5032662;28;20029;-36
2022/05/16 04:13:36;;;;;;;12.68;7.55;;;;;;;23.18;50.40;100042.88;5032155;28;20036;-37
2022/05/16 04:16:02;;;;;;;11.65;7.03;;;;;;;23.42;50.52;100038.38;5051047;28;20028;-38
2022/05/16 04:18:27;;;;;;;11.60;8.82;;;;;;;23.75;48.92;100038.69;5052224;28;20032;-37
2022/05/16 04:20:53;;;;;;;11.98;7.65;;;;;;;24.25;46.57;100037.72;5051381;28;20021;-38
2022/05/16 04:23:18;;;;;;;14.70;10.77;;;;;;;24.37;46.31;100040.88;5051080;28;20051;-37
2022/05/16 04:25:44;;;;;;;13.88;10.05;;;;;;;24.82;45.28;100036.03;5052306;28;20388;-37
2022/05/16 04:28:11;;;;;;;11.82;8.27;;;;;;;25.21;44.40;100036.88;5052267;28;20041;-37
2022/05/16 04:30:37;;;;;;;10.15;7.78;;;;;;;25.50;44.09;100044.94;5050734;28;20040;-37
2022/05/16 04:33:04;;;;;;;8.15;6.80;;;;;;;25.54;43.42;100037.78;5048634;28;20459;-38
2022/05/16 04:35:29;;;;;;;11.38;6.55;;;;;;;25.84;42.84;100041.13;5049430;28;20029;-37
2022/05/16 04:37:55;;;;;;;9.25;6.55;;;;;;;26.00;42.01;100034.31;5049828;28;20252;-37
2022/05/16 04:40:21;;;;;;;10.18;6.40;;;;;;;26.37;41.04;100043.50;5049724;28;20044;-38
2022/05/16 04:42:48;;;;;;;7.88;6.43;;;;;;;26.51;40.71;100041.56;5050384;28;20029;-37
2022/05/16 04:45:21;;;;;;;6.88;6.18;;;;;;;26.26;40.83;100050.25;5050963;28;20025;-38
2022/05/16 04:47:50;;;;;;;10.15;6.57;;;;;;;26.47;40.57;100051.47;5051226;28;20029;-37
2022/05/16 04:50:21;;;;;;;11.60;7.40;;;;;;;26.82;40.15;100046.44;5051928;28;20024;-38
2022/05/16 04:52:46;;;;;;;10.35;6.70;;;;;;;26.94;39.98;100043.22;5051049;28;20020;-37
2022/05/16 04:55:13;;;;;;;11.75;6.55;;;;;;;27.27;39.38;100040.31;5050049;28;20025;-35
2022/05/16 04:57:39;;;;;;;10.32;6.20;;;;;;;27.48;38.87;100048.88;5049845;28;20025;-37
2022/05/16 05:00:06;;;;;;;6.93;6.03;;;;;;;27.90;38.05;100043.25;5050321;28;20029;-37
2022/05/16 05:02:32;;;;;;;12.00;6.10;;;;;;;28.30;36.90;100043.28;5048134;28;20025;-37
2022/05/16 05:04:59;;;;;;;11.55;6.25;;;;;;;28.56;36.58;100044.25;5030648;28;20025;-38
2022/05/16 05:07:25;;;;;;;11.18;6.82;;;;;;;28.78;36.21;100051.53;5030551;28;20485;-37
2022/05/16 05:15:19;;;;;;;9.25;6.20;;;;;;;28.95;35.91;100044.50;5029826;28;20048;-37
2022/05/16 05:17:44;;;;;;;9.40;5.85;;;;;;;29.19;35.47;100053.09;5029449;28;20029;-38
2022/05/16 05:20:13;;;;;;;8.30;5.97;;;;;;;29.54;34.72;100050.34;5029440;28;20405;-37
2022/05/16 05:22:47;;;;;;;7.88;5.90;;;;;;;29.72;34.85;100053.06;5030353;28;20025;-38
2022/05/16 05:25:17;;;;;;;8.15;5.80;;;;;;;30.08;34.08;100049.16;5030310;28;20040;-37
2022/05/16 05:27:46;;;;;;;6.53;5.82;;;;;;;29.91;33.73;100056.31;5031156;28;20387;-37
2022/05/16 05:30:14;;;;;;;7.72;6.28;;;;;;;30.09;33.43;100056.28;5029830;28;20536;-37
2022/05/16 05:32:42;;;;;;;6.40;5.72;;;;;;;30.45;33.16;100057.81;5030580;28;20021;-37
2022/05/16 05:35:08;;;;;;;7.90;5.45;;;;;;;30.55;33.06;100062.91;5029985;28;20051;-37
2022/05/16 05:37:35;;;;;;;9.10;5.78;;;;;;;30.87;32.14;100060.66;5029542;28;20053;-37
2022/05/16 05:40:01;;;;;;;6.97;5.45;;;;;;;31.34;31.64;100058.56;5049583;28;20029;-38
2022/05/16 05:42:29;;;;;;;12.27;5.10;;;;;;;31.63;31.35;100065.16;5049765;28;20039;-38
2022/05/16 05:44:54;;;;;;;7.63;5.30;;;;;;;31.79;30.96;100064.53;5050017;28;20094;-38
2022/05/16 05:47:21;;;;;;;7.40;5.22;;;;;;;32.20;30.38;100060.88;5049879;28;20457;-37
2022/05/16 05:49:46;;;;;;;8.13;5.63;;;;;;;32.19;30.56;100061.22;5049647;28;20035;-38
2022/05/16 05:52:12;;;;;;;6.93;5.40;;;;;;;32.14;30.57;100070.50;5050078;28;20025;-37
2022/05/16 05:54:37;;;;;;;7.07;5.50;;;;;;;32.50;29.79;100063.41;5049569;28;20453;-38
2022/05/16 05:57:06;;;;;;;7.63;5.15;;;;;;;32.61;29.97;100064.59;5049764;28;20021;-38
2022/05/16 05:59:31;;;;;;;8.25;5.50;;;;;;;32.89;29.41;100072.16;5049101;28;20048;-38
2022/05/16 06:01:57;;;;;;;8.05;5.97;;;;;;;33.08;29.23;100064.09;5049621;28;20060;-38
2022/05/16 06:04:22;;;;;;;12.82;6.18;;;;;;;33.34;29.08;100062.09;5031888;28;20021;-38
2022/05/16 06:06:48;;;;;;;7.68;6.10;;;;;;;32.72;29.40;100065.75;5030241;28;20021;-37
2022/05/16 06:09:13;;;;;;;8.80;5.35;;;;;;;32.88;29.13;100065.88;5029204;28;20075;-38
2022/05/16 06:11:39;;;;;;;9.63;5.82;;;;;;;33.41;28.49;100076.09;5029183;28;20501;-38
2022/05/16 06:14:05;;;;;;;9.70;5.40;;;;;;;33.65;28.24;100067.75;5029573;28;20025;-37
2022/05/16 06:16:30;;;;;;;10.55;5.20;;;;;;;34.02;27.95;100072.28;5029332;28;20028;-37
2022/05/16 06:18:56;;;;;;;11.85;5.40;;;;;;;33.73;28.22;100066.00;5029158;28;20017;-37
2022/05/16 06:21:21;;;;;;;9.38;5.50;;;;;;;33.92;28.28;100075.56;5028642;28;20466;-38
2022/05/16 06:23:47;;;;;;;8.57;5.28;;;;;;;34.25;27.17;100065.06;5029149;28;20493;-36
2022/05/16 06:26:13;;;;;;;7.90;5.13;;;;;;;34.61;27.12;100076.97;5029689;28;20026;-39
2022/05/16 06:28:39;;;;;;;8.27;5.40;;;;;;;34.36;27.34;100073.59;5028704;28;20496;-42
2022/05/16 06:31:05;;;;;;;6.55;5.03;;;;;;;34.41;27.52;100072.53;5029147;28;20108;-37
2022/05/16 06:33:31;;;;;;;9.32;6.03;;;;;;;34.66;27.15;100071.16;5029212;28;20053;-37
2022/05/16 06:35:57;;;;;;;8.13;5.60;;;;;;;34.47;27.20;100071.09;5029299;28;20053;-37
2022/05/16 06:38:30;;;;;;;8.15;5.80;;;;;;;34.67;27.10;100069.22;5035248;28;20508;-37
2022/05/16 06:40:56;;;;;;;7.60;6.22;;;;;;;34.65;27.16;100064.06;5047881;28;20029;-37
2022/05/16 06:43:24;;;;;;;7.07;5.43;;;;;;;34.61;27.41;100068.66;5048750;28;20040;-38
2022/05/16 06:45:51;;;;;;;8.10;5.43;;;;;;;35.03;27.15;100068.09;5048807;28;20029;-37
2022/05/16 06:48:17;;;;;;;8.40;5.90;;;;;;;34.12;28.30;100060.75;5048252;28;20294;-37
2022/05/16 06:50:45;;;;;;;8.50;5.45;;;;;;;35.09;26.86;100067.81;5048352;28;20032;-36
2022/05/16 06:53:16;;;;;;;10.05;5.80;;;;;;;35.37;26.88;100060.13;5048010;28;20032;-37
2022/05/16 06:55:42;;;;;;;9.52;5.68;;;;;;;35.64;26.56;100065.81;5047800;28;20025;-38
2022/05/16 06:58:07;;;;;;;10.45;6.20;;;;;;;35.89;25.96;100069.09;5048141;28;20063;-38
2022/05/16 07:00:33;;;;;;;41.03;7.15;;;;;;;36.11;25.84;100061.97;5047309;28;20035;-37
2022/05/16 07:02:58;;;;;;;8.02;5.85;;;;;;;36.27;25.59;100063.84;5042219;28;20091;-38
2022/05/16 07:05:24;;;;;;;8.30;6.03;;;;;;;36.57;25.46;100072.25;5028255;28;20417;-37
2022/05/16 07:07:51;;;;;;;15.25;6.80;;;;;;;35.55;26.68;100071.56;5028701;28;20083;-38
2022/05/16 07:10:17;;;;;;;7.50;6.38;;;;;;;36.05;25.78;100068.19;5028143;28;20059;-38
2022/05/16 07:12:42;;;;;;;11.00;5.75;;;;;;;36.23;25.88;100065.75;5028429;28;20045;-37
2022/05/16 07:15:08;;;;;;;10.98;6.82;;;;;;;35.46;26.66;100061.91;5027870;28;20695;-37
2022/05/16 07:17:34;;;;;;;8.57;5.88;;;;;;;35.69;26.40;100064.75;5028387;28;20091;-38
2022/05/16 07:19:59;;;;;;;6.72;5.40;;;;;;;36.11;26.36;100067.50;5027877;28;20063;-38
2022/05/16 07:22:25;;;;;;;7.30;6.05;;;;;;;36.76;25.25;100069.38;5028532;28;20029;-37
2022/05/16 07:24:52;;;;;;;10.77;6.93;;;;;;;36.79;24.72;100071.44;5028501;28;20025;-37
2022/05/16 07:30:08;;;;;;;7.97;7.03;;;;;;;36.06;25.40;100061.47;5028727;28;20206;-37
2022/05/16 07:32:42;;;;;;;7.97;6.40;;;;;;;36.11;25.52;100061.97;5028620;28;20017;-38
2022/05/16 07:35:13;;;;;;;9.05;6.22;;;;;;;36.33;25.22;100048.53;5028024;28;20026;-38
2022/05/16 07:37:39;;;;;;;8.73;6.25;;;;;;;35.89;26.18;100057.22;5027365;28;20108;-37
2022/05/16 07:40:08;;;;;;;7.80;6.82;;;;;;;36.32;25.36;100058.78;5029764;28;20108;-37
2022/05/16 07:42:33;;;;;;;;;;;;;;;36.46;25.07;100063.78;5032089;28;20032;-37
2022/05/16 07:44:59;;;;;;;8.00;6.78;;;;;;;36.08;25.53;100051.63;5032020;28;19938;-37
2022/05/16 07:47:25;;;;;;;9.15;6.57;;;;;;;36.20;25.75;100043.16;5032121;28;20109;-39
2022/05/16 07:49:50;;;;;;;9.43;6.65;;;;;;;36.37;25.60;100046.59;5031529;28;20109;-38
2022/05/16 07:52:16;;;;;;;8.02;6.57;;;;;;;36.26;25.04;100038.13;5032180;28;20025;-38
2022/05/16 07:54:41;;;;;;;7.28;5.90;;;;;;;36.08;26.15;100036.97;5032140;28;20060;-38
2022/05/16 07:57:07;;;;;;;9.27;6.47;;;;;;;36.68;25.21;100039.97;5031741;28;20052;-38
2022/05/16 07:59:32;;;;;;;9.68;5.97;;;;;;;36.37;25.69;100013.38;5030801;28;20017;-38
2022/05/16 08:01:58;;;;;;;10.45;6.47;;;;;;;36.17;25.68;100037.56;5032084;28;20102;-38
2022/05/16 08:04:23;;;;;;;7.07;5.80;;;;;;;36.06;25.83;100040.09;5049439;28;20464;-37
2022/05/16 08:06:49;;;;;;;9.98;5.60;;;;;;;34.45;27.37;100027.25;5050267;28;20488;-38
2022/05/16 08:11:58;;;;;;;8.40;5.82;;;;;;;36.07;26.06;100025.09;5051536;28;20031;-37
2022/05/16 08:14:24;;;;;;;9.07;5.88;;;;;;;35.77;26.41;100028.53;5051513;28;20025;-38
2022/05/16 08:16:49;;;;;;;11.32;6.38;;;;;;;35.41;26.94;100030.59;5051515;28;20050;-38
2022/05/16 08:19:15;;;;;;;8.05;6.20;;;;;;;35.92;25.77;100026.03;5050454;28;20558;-38
2022/05/16 08:21:42;;;;;;;7.60;5.95;;;;;;;36.14;25.60;100021.66;5051349;28;20090;-38
2022/05/16 08:24:09;;;;;;;7.88;6.22;;;;;;;36.29;24.84;100018.00;5050937;28;20083;-38
2022/05/16 08:26:36;;;;;;;7.90;6.17;;;;;;;35.73;25.77;100019.38;5051717;28;20040;-37
2022/05/16 08:29:02;;;;;;;7.43;5.53;;;;;;;36.05;26.19;100019.13;5050748;28;20291;-38
2022/05/16 08:31:28;;;;;;;6.95;6.00;;;;;;;36.59;24.99;100009.75;5051056;28;20036;-38
2022/05/16 08:33:56;;;;;;;8.70;5.65;;;;;;;36.58;25.34;100021.19;5050849;28;20094;-38
2022/05/16 08:41:57;;;;;;;9.10;5.35;;;;;;;37.62;23.28;100003.16;5050082;28;20495;-38
2022/05/16 08:44:47;;;;;;;6.10;4.95;;;;;;;37.64;23.21;100005.56;5050650;28;20017;-38
2022/05/16 08:48:10;;;;;;;7.05;5.75;;;;;;;37.80;23.09;100008.09;5051152;28;20029;-38
2022/05/16 08:50:42;;;;;;;6.38;4.90;;;;;;;37.93;22.74;99996.31;5007466;28;20037;-38
2022/05/16 08:53:23;;;;;;;6.75;5.30;;;;;;;38.53;22.17;100006.34;5008569;28;20628;-37
2022/05/16 08:55:52;;;;;;;6.50;4.90;;;;;;;38.36;21.71;99997.88;5034152;28;20086;-39
2022/05/16 08:58:35;;;;;;;7.10;5.30;;;;;;;36.56;23.30;100001.38;5050384;28;20087;-37
2022/05/16 09:01:11;;;;;;;6.10;5.22;;;;;;;36.70;23.70;100007.13;5049258;28;20047;-38
2022/05/16 09:03:48;;;;;;;7.03;4.80;;;;;;;36.46;23.15;100007.53;5037988;28;20029;-38
2022/05/16 09:06:29;;;;;;;6.90;4.50;;;;;;;36.70;22.95;100000.81;5030268;28;20107;-38
2022/05/16 09:09:11;;;;;;;5.10;4.00;;;;;;;37.72;22.12;99996.91;5029601;28;20535;-38
2022/05/16 09:11:39;;;;;;;5.13;4.18;;;;;;;37.85;20.85;99993.84;5028529;28;20083;-38
2022/05/16 09:14:16;;;;;;;5.40;4.00;;;;;;;37.46;20.78;99991.47;5030087;28;20052;-38
2022/05/16 09:16:53;;;;;;;7.18;4.63;;;;;;;36.45;22.87;99990.13;5029958;28;20466;-37
2022/05/16 09:19:43;;;;;;;7.90;4.45;;;;;;;37.11;22.94;99987.88;5029406;28;20393;-38
2022/05/16 09:22:23;;;;;;;6.35;4.30;;;;;;;35.96;23.61;99982.59;5029609;28;20485;-38
2022/05/16 09:24:54;;;;;;;6.63;4.50;;;;;;;35.76;24.30;99977.13;5029381;28;20068;-38
2022/05/16 09:30:08;;;;;;;9.60;4.60;;;;;;;34.94;24.58;99972.69;5029183;28;20135;-37
2022/05/16 09:32:41;;;;;;;5.88;4.55;;;;;;;35.01;24.39;99968.16;5029408;28;20032;-38
2022/05/16 09:35:21;;;;;;;5.97;4.03;;;;;;;35.99;23.71;99962.47;5029232;28;20032;-38
2022/05/16 09:37:46;;;;;;;10.25;4.47;;;;;;;35.57;22.91;99966.09;5029348;28;20452;-38
2022/05/16 09:40:12;;;;;;;10.40;4.53;;;;;;;36.29;22.23;99953.47;5028226;28;20051;-37
2022/05/16 09:42:37;;;;;;;7.22;3.72;;;;;;;36.83;21.39;99963.38;5029277;28;20532;-37
2022/05/16 09:45:21;;;;;;;4.55;3.40;;;;;;;35.80;21.06;99960.59;5029302;28;20045;-38
2022/05/16 09:47:46;;;;;;;3.92;3.40;;;;;;;35.92;21.39;99951.28;5029054;28;20029;-38
2022/05/16 09:50:20;;;;;;;6.28;3.35;;;;;;;36.16;21.34;99944.56;5028845;28;20026;-37
2022/05/16 09:53:14;;;;;;;8.48;3.47;;;;;;;36.93;19.28;99943.28;5029373;28;20480;-38
2022/05/16 09:55:50;;;;;;;6.43;4.35;;;;;;;37.37;18.98;99937.06;5028896;28;20025;-38
2022/05/16 09:58:22;;;;;;;6.18;3.40;;;;;;;36.76;20.54;99935.53;5029099;28;20052;-37
2022/05/16 10:01:08;;;;;;;7.47;3.78;;;;;;;37.48;19.99;99926.06;5028168;28;20052;-39
2022/05/16 10:03:47;;;;;;;7.03;3.58;;;;;;;36.54;20.78;99910.31;5039359;28;20044;-38
2022/05/16 10:06:35;;;;;;;5.32;3.78;;;;;;;37.26;19.38;99925.09;5048992;28;20028;-38
2022/05/16 10:09:10;;;;;;;5.20;3.72;;;;;;;35.66;21.47;99919.56;5048487;28;20029;-37
2022/05/16 10:11:38;;;;;;;5.38;3.30;;;;;;;35.57;20.99;99900.47;5048821;28;20021;-37
2022/05/16 10:14:05;;;;;;;5.93;3.43;;;;;;;35.42;21.39;99904.94;5048386;28;20082;-37
2022/05/16 10:16:32;;;;;;;4.03;3.63;;;;;;;36.03;20.90;99902.41;5047813;28;20511;-37
2022/05/16 10:19:05;;;;;;;4.10;3.38;;;;;;;35.04;21.31;99906.59;5047785;28;20021;-38
2022/05/16 10:21:51;;;;;;;4.15;3.33;;;;;;;35.36;21.21;99905.63;5048756;28;20079;-37
2022/05/16 10:24:19;;;;;;;7.25;3.83;;;;;;;35.32;21.41;99888.97;5048457;28;20055;-37
2022/05/16 10:26:48;;;;;;;5.87;3.37;;;;;;;35.50;20.86;99885.72;5048643;28;20029;-38
2022/05/16 10:29:25;;;;;;;5.78;3.22;;;;;;;36.14;20.25;99886.78;5047828;28;20064;-38
2022/05/16 10:34:56;;;;;;;5.05;3.10;;;;;;;37.47;17.79;99859.84;5028326;28;20399;-50
2022/05/16 10:37:23;;;;;;;5.72;3.03;;;;;;;36.68;18.84;99867.34;5028290;28;20570;-51
2022/05/16 10:39:55;;;;;;;3.95;3.08;;;;;;;36.99;18.81;99866.09;5027797;28;20393;-51
2022/05/16 10:42:31;;;;;;;3.63;3.17;;;;;;;37.27;18.15;99860.09;5028452;28;20025;-51
2022/05/16 10:45:17;;;;;;;4.10;3.10;;;;;;;36.88;18.94;99849.38;5029147;28;20029;-50
2022/05/16 10:47:57;;;;;;;5.22;3.00;;;;;;;37.82;17.87;99851.06;5027870;28;20397;-52
2022/05/16 10:50:25;;;;;;;8.52;3.30;;;;;;;37.96;18.15;99844.78;5028397;28;20049;-52
2022/05/16 10:52:56;;;;;;;6.07;3.30;;;;;;;37.19;18.27;99838.22;5035995;28;20021;-51
2022/05/16 10:55:23;;;;;;;3.95;3.30;;;;;;;37.69;17.48;99835.88;5047852;28;20037;-51
2022/05/16 10:58:01;;;;;;;4.30;3.10;;;;;;;35.80;18.90;99827.72;5047506;28;20029;-51
2022/05/16 11:00:33;;;;;;;4.38;3.17;;;;;;;35.99;18.93;99837.91;5048011;28;20049;-52
2022/05/16 11:03:17;;;;;;;6.55;3.10;;;;;;;35.93;17.99;99822.75;5041554;28;20030;-51
2022/05/16 11:06:11;;;;;;;6.00;3.35;;;;;;;35.83;19.43;99818.66;5028452;28;20026;-49
2022/05/16 11:08:48;;;;;;;5.28;3.05;;;;;;;36.26;19.63;99824.06;5028747;28;20457;-51
2022/05/16 11:11:42;;;;;;;5.85;3.28;;;;;;;37.55;18.03;99812.38;5028275;28;20646;-51
2022/05/16 11:14:33;;;;;;;4.22;3.10;;;;;;;37.93;18.14;99801.94;5029432;28;20022;-51
2022/05/16 11:17:19;;;;;;;7.22;3.20;;;;;;;37.86;17.87;99801.09;5031990;28;20076;-51
2022/05/16 11:19:49;;;;;;;4.35;3.10;;;;;;;37.87;17.36;99789.63;5032090;28;20095;-49
2022/05/16 11:22:42;;;;;;;6.38;3.17;;;;;;;37.93;17.37;99790.84;5048797;28;20078;-51
2022/05/16 11:25:15;;;;;;;5.00;3.20;;;;;;;37.59;16.96;99779.09;5035427;28;20042;-52
2022/05/16 11:28:19;;;;;;;5.05;2.95;;;;;;;35.85;18.24;99788.63;5044635;28;20469;-50
2022/05/16 11:30:53;;;;;;;4.80;3.10;;;;;;;35.44;18.45;99786.44;5040783;28;20041;-55
2022/05/16 11:33:21;;;;;;;5.85;3.25;;;;;;;35.22;19.16;99784.47;5049671;28;20455;-55
2022/05/16 11:35:49;;;;;;;4.72;2.97;;;;;;;34.92;19.43;99778.78;5034007;28;20396;-52
2022/05/16 11:38:42;;;;;;;6.53;3.30;;;;;;;35.88;18.26;99774.06;5032249;28;20145;-51
2022/05/16 11:41:27;;;;;;;7.05;3.00;;;;;;;35.20;17.77;99770.22;5034185;28;20022;-51
2022/05/16 11:44:06;;;;;;;5.10;2.67;;;;;;;35.87;18.15;99763.34;5040254;28;20024;-51
2022/05/16 11:46:50;;;;;;;3.88;3.00;;;;;;;34.56;19.72;99764.28;5039386;28;20057;-51
2022/05/16 11:49:28;;;;;;;4.22;2.90;;;;;;;34.98;20.27;99756.00;5048777;28;20025;-49
2022/05/16 11:52:00;;;;;;;6.65;2.92;;;;;;;34.68;19.92;99753.09;5039040;28;20084;-51
2022/05/16 11:54:46;;;;;;;5.22;3.05;;;;;;;33.47;21.01;99749.25;5044947;28;20039;-50
2022/05/16 12:03:11;;;;;;;9.88;3.00;;;;;;;34.91;20.21;99728.25;5038168;28;20056;-51
2022/05/16 12:05:37;;;;;;;4.43;3.27;;;;;;;34.80;20.16;99724.50;5040125;28;20091;-51
2022/05/16 12:08:38;;;;;;;5.13;2.78;;;;;;;34.03;19.77;99717.84;5042463;28;20557;-50
2022/05/16 12:11:03;;;;;;;5.18;2.80;;;;;;;34.22;19.90;99720.63;5042211;28;20391;-51
2022/05/16 12:13:34;;;;;;;3.90;2.90;;;;;;;33.71;20.10;99728.97;5039492;28;20014;-50